createdAt,value
2023-04-15T00:03:39.890Z,47.90
2023-04-15T00:07:48.278Z,46.60
2023-04-15T00:11:56.076Z,39.90
2023-04-15T00:16:04.146Z,41.00
2023-04-15T00:20:13.005Z,43.00
2023-04-15T00:24:20.501Z,47.50
2023-04-15T00:28:28.556Z,40.80
2023-04-15T00:32:37.170Z,35.70
2023-04-15T00:36:44.639Z,32.40
2023-04-15T00:40:52.581Z,29.30
2023-04-15T00:45:00.695Z,25.70
2023-04-15T00:49:08.765Z,24.40
2023-04-15T00:53:17.323Z,22.10
2023-04-15T00:57:26.110Z,17.80
2023-04-15T01:01:35.288Z,17.30
2023-04-15T01:05:43.228Z,17.10
2023-04-15T01:09:51.481Z,15.90
2023-04-15T01:14:00.341Z,16.80
2023-04-15T01:18:08.784Z,16.30
2023-04-15T01:22:16.289Z,16.50
2023-04-15T01:26:25.012Z,16.50
2023-04-15T01:30:36.896Z,18.00
2023-04-15T01:34:45.263Z,17.10
2023-04-15T01:38:53.984Z,16.50
2023-04-15T01:43:04.377Z,15.90
2023-04-15T01:47:12.479Z,17.60
2023-04-15T01:51:21.398Z,19.10
2023-04-15T01:55:29.194Z,16.60
2023-04-15T01:59:37.722Z,16.40
2023-04-15T02:03:46.673Z,19.30
2023-04-15T02:07:55.850Z,21.30
2023-04-15T02:12:03.496Z,17.10
2023-04-15T02:16:20.121Z,18.00
2023-04-15T02:20:28.509Z,16.80
2023-04-15T02:24:36.932Z,16.80
2023-04-15T02:28:44.961Z,16.70
2023-04-15T02:32:52.880Z,23.00
2023-04-15T02:37:02.391Z,18.30
2023-04-15T02:41:11.012Z,19.30
2023-04-15T02:45:21.289Z,17.90
2023-04-15T02:49:31.247Z,17.60
2023-04-15T02:53:38.706Z,22.70
2023-04-15T02:57:46.844Z,20.20
2023-04-15T03:01:55.818Z,18.70
2023-04-15T03:06:04.021Z,22.10
2023-04-15T03:10:13.374Z,22.30
2023-04-15T03:14:20.826Z,23.70
2023-04-15T03:18:29.744Z,23.10
2023-04-15T03:22:39.445Z,25.10
2023-04-15T03:26:47.610Z,22.10
2023-04-15T03:30:55.975Z,22.40
2023-04-15T03:35:04.000Z,17.80
2023-04-15T03:39:12.040Z,16.90
2023-04-15T03:43:21.851Z,14.20
2023-04-15T03:47:30.416Z,13.70
2023-04-15T03:51:38.353Z,10.80
2023-04-15T03:55:46.988Z,10.80
2023-04-15T03:59:54.702Z,9.40
2023-04-15T04:04:02.927Z,9.70
2023-04-15T04:08:13.792Z,8.40
2023-04-15T04:12:21.533Z,7.50
2023-04-15T04:16:29.543Z,7.60
2023-04-15T04:20:39.990Z,8.10
2023-04-15T04:24:47.563Z,6.70
2023-04-15T04:28:55.249Z,7.20
2023-04-15T04:33:03.508Z,7.10
2023-04-15T04:37:14.589Z,7.30
2023-04-15T04:41:22.358Z,6.20
2023-04-15T04:45:30.709Z,7.80
2023-04-15T04:49:38.593Z,6.60
2023-04-15T04:53:46.498Z,6.50
2023-04-15T04:57:54.290Z,5.70
2023-04-15T05:02:05.126Z,5.30
2023-04-15T05:06:13.857Z,4.30
2023-04-15T05:10:22.108Z,3.90
2023-04-15T05:14:29.937Z,3.70
2023-04-15T05:18:38.077Z,4.90
2023-04-15T05:22:46.131Z,4.00
2023-04-15T05:26:54.238Z,3.60
2023-04-15T05:31:02.443Z,4.30
2023-04-15T05:35:12.317Z,4.00
2023-04-15T05:39:19.864Z,4.20
2023-04-15T05:43:28.317Z,6.30
2023-04-15T05:47:36.075Z,6.30
2023-04-15T05:51:44.019Z,4.50
2023-04-15T05:55:52.358Z,3.80
2023-04-15T06:00:00.371Z,3.90
2023-04-15T06:04:08.106Z,4.60
2023-04-15T06:08:16.407Z,3.90
2023-04-15T06:12:24.957Z,4.50
2023-04-15T06:16:32.576Z,4.00
2023-04-15T06:20:45.853Z,4.30
2023-04-15T06:24:54.028Z,5.20
2023-04-15T06:29:02.165Z,6.10
2023-04-15T06:33:12.003Z,4.80
2023-04-15T06:37:20.476Z,5.30
2023-04-15T06:41:28.191Z,5.40
2023-04-15T06:45:36.572Z,4.60
2023-04-15T06:49:45.373Z,6.90
2023-04-15T06:53:53.378Z,7.20
2023-04-15T06:58:02.291Z,7.30
2023-04-15T07:02:13.991Z,8.10
2023-04-15T07:06:22.512Z,5.90
2023-04-15T07:10:31.288Z,3.80
2023-04-15T07:14:39.929Z,3.30
2023-04-15T07:18:48.526Z,4.10
2023-04-15T07:22:56.547Z,3.30
2023-04-15T07:27:04.294Z,2.40
2023-04-15T07:31:12.425Z,3.40
2023-04-15T07:35:21.578Z,2.40
2023-04-15T07:39:29.978Z,3.60
2023-04-15T07:43:37.963Z,7.50
2023-04-15T07:47:46.463Z,5.50
2023-04-15T07:51:54.501Z,2.60
2023-04-15T07:56:03.638Z,2.30
2023-04-15T08:00:15.233Z,3.50
2023-04-15T08:04:23.325Z,2.70
2023-04-15T08:08:31.638Z,4.70
2023-04-15T08:12:39.065Z,3.20
2023-04-15T08:16:48.105Z,3.00
2023-04-15T08:20:56.647Z,2.40
2023-04-15T08:25:04.803Z,2.90
2023-04-15T08:29:13.294Z,3.00
2023-04-15T08:33:22.357Z,3.30
2023-04-15T08:37:29.943Z,4.40
2023-04-15T08:41:46.870Z,3.70
2023-04-15T08:45:56.105Z,4.40
2023-04-15T08:50:08.069Z,2.70
2023-04-15T08:54:16.678Z,3.40
2023-04-15T08:58:24.730Z,4.80
2023-04-15T09:02:33.192Z,2.70
2023-04-15T09:06:43.191Z,3.90
2023-04-15T09:10:51.420Z,2.60
2023-04-15T09:15:00.109Z,3.70
2023-04-15T09:19:24.631Z,3.10
2023-04-15T09:23:33.658Z,1.90
2023-04-15T09:27:41.643Z,2.60
2023-04-15T09:31:49.152Z,2.70
2023-04-15T09:36:04.957Z,3.30
2023-04-15T09:40:14.949Z,3.00
2023-04-15T09:44:29.868Z,5.10
2023-04-15T09:48:37.996Z,4.40
2023-04-15T09:52:46.847Z,3.30
2023-04-15T09:56:54.346Z,3.80
2023-04-15T10:01:04.535Z,3.50
2023-04-15T10:05:15.566Z,4.10
2023-04-15T10:09:23.878Z,3.30
2023-04-15T10:13:36.337Z,3.30
2023-04-15T10:17:47.634Z,3.40
2023-04-15T10:21:55.394Z,3.10
2023-04-15T10:26:05.127Z,3.50
2023-04-15T10:30:14.567Z,3.90
2023-04-15T10:34:24.284Z,3.60
2023-04-15T10:38:40.223Z,3.10
2023-04-15T10:42:48.847Z,3.10
2023-04-15T10:46:57.694Z,4.10
2023-04-15T10:51:05.869Z,3.30
2023-04-15T10:55:20.834Z,4.40
2023-04-15T10:59:28.768Z,4.00
2023-04-15T11:03:42.341Z,2.40
2023-04-15T11:07:57.080Z,3.10
2023-04-15T11:12:12.354Z,4.10
2023-04-15T11:16:21.693Z,3.10
2023-04-15T11:20:30.246Z,3.20
2023-04-15T11:24:37.838Z,4.80
2023-04-15T11:28:47.489Z,3.50
2023-04-15T11:32:58.271Z,3.70
2023-04-15T11:37:09.015Z,3.60
2023-04-15T11:41:16.851Z,3.60
2023-04-15T11:45:24.847Z,3.30
2023-04-15T11:49:35.216Z,3.30
2023-04-15T11:53:46.284Z,4.00
2023-04-15T11:58:09.920Z,5.50
2023-04-15T12:02:18.464Z,4.00
2023-04-15T12:06:28.100Z,4.20
2023-04-15T12:10:36.625Z,4.40
2023-04-15T12:14:45.124Z,3.40
2023-04-15T12:18:56.141Z,3.30
2023-04-15T12:23:10.515Z,5.10
2023-04-15T12:27:21.426Z,3.30
2023-04-15T12:31:31.544Z,4.60
2023-04-15T12:35:40.085Z,3.80
2023-04-15T12:39:50.268Z,3.60
2023-04-15T12:43:58.331Z,4.30
2023-04-15T12:48:06.751Z,3.60
2023-04-15T12:52:15.331Z,4.90
2023-04-15T12:56:24.227Z,5.00
2023-04-15T13:00:31.752Z,4.10
2023-04-15T13:04:40.757Z,4.40
2023-04-15T13:08:57.914Z,5.70
2023-04-15T13:13:07.302Z,4.80
2023-04-15T13:17:19.021Z,3.70
2023-04-15T13:21:27.434Z,3.40
2023-04-15T13:25:35.448Z,7.00
2023-04-15T13:29:43.259Z,5.20
2023-04-15T13:33:51.792Z,3.10
2023-04-15T13:37:59.704Z,3.30
2023-04-15T13:42:08.060Z,5.40
2023-04-15T13:46:16.931Z,3.00
2023-04-15T13:50:24.520Z,3.20
2023-04-15T13:54:37.024Z,3.70
2023-04-15T13:58:46.326Z,4.70
2023-04-15T14:02:56.695Z,4.50
2023-04-15T14:07:05.547Z,4.10
2023-04-15T14:11:13.613Z,4.20
2023-04-15T14:15:21.783Z,3.80
2023-04-15T14:19:31.601Z,5.60
2023-04-15T14:23:39.957Z,4.90
2023-04-15T14:27:47.609Z,4.10
2023-04-15T14:32:11.197Z,4.70
2023-04-15T14:36:20.942Z,5.60
2023-04-15T14:40:29.270Z,4.70
2023-04-15T14:44:36.786Z,4.10
2023-04-15T14:48:44.816Z,4.50
2023-04-15T14:52:52.909Z,3.70
2023-04-15T14:57:02.973Z,4.40
2023-04-15T15:01:11.538Z,4.50
2023-04-15T15:05:20.012Z,4.30
2023-04-15T15:09:29.443Z,4.20
2023-04-15T15:13:37.838Z,3.90
2023-04-15T15:17:46.223Z,4.30
2023-04-15T15:21:55.197Z,3.70
2023-04-15T15:26:03.825Z,4.90
2023-04-15T15:30:14.758Z,4.20
2023-04-15T15:34:22.642Z,4.50
2023-04-15T15:38:31.357Z,4.20
2023-04-15T15:42:39.980Z,5.10
2023-04-15T15:46:47.824Z,7.60
2023-04-15T15:50:55.796Z,4.90
2023-04-15T15:55:03.386Z,5.10
2023-04-15T15:59:11.292Z,5.40
2023-04-15T16:03:20.044Z,6.40
2023-04-15T16:07:28.609Z,4.60
2023-04-15T16:11:37.584Z,4.50
2023-04-15T16:15:46.200Z,6.70
2023-04-15T16:19:57.681Z,4.60
2023-04-15T16:24:08.879Z,4.40
2023-04-15T16:28:26.273Z,5.90
2023-04-15T16:32:35.343Z,5.90
2023-04-15T16:36:43.057Z,5.70
2023-04-15T16:40:52.523Z,6.10
2023-04-15T16:45:00.798Z,5.50
2023-04-15T16:49:08.997Z,7.00
2023-04-15T16:53:17.704Z,4.90
2023-04-15T16:57:27.251Z,7.70
2023-04-15T17:01:53.983Z,4.70
2023-04-15T17:06:03.842Z,4.90
2023-04-15T17:10:14.615Z,5.90
2023-04-15T17:14:22.803Z,6.20
2023-04-15T17:18:31.217Z,5.90
2023-04-15T17:22:38.951Z,5.70
2023-04-15T17:26:50.283Z,5.70
2023-04-15T17:31:03.082Z,4.40
2023-04-15T17:35:14.172Z,6.00
2023-04-15T17:39:23.044Z,6.60
2023-04-15T17:43:30.913Z,6.00
2023-04-15T17:47:39.428Z,7.00
2023-04-15T17:51:47.552Z,7.40
2023-04-15T17:55:56.196Z,6.70
2023-04-15T18:00:04.933Z,7.70
2023-04-15T18:04:14.859Z,9.80
2023-04-15T18:08:22.853Z,11.00
2023-04-15T18:12:30.797Z,28.70
2023-04-15T18:16:40.550Z,22.40
2023-04-15T18:20:48.933Z,12.90
2023-04-15T18:24:59.407Z,13.40
2023-04-15T18:29:08.075Z,9.40
2023-04-15T18:33:16.558Z,13.40
2023-04-15T18:37:24.894Z,11.90
2023-04-15T18:41:33.438Z,12.80
2023-04-15T18:45:41.474Z,10.30
2023-04-15T18:49:49.586Z,9.50
2023-04-15T18:53:58.068Z,10.70
2023-04-15T18:58:08.733Z,10.60
2023-04-15T19:02:17.719Z,10.90
2023-04-15T19:06:28.830Z,11.10
2023-04-15T19:10:37.433Z,11.80
2023-04-15T19:14:44.821Z,11.90
2023-04-15T19:18:53.181Z,11.80
2023-04-15T19:23:03.396Z,11.90
2023-04-15T19:27:12.229Z,12.10
2023-04-15T19:31:20.938Z,14.50
2023-04-15T19:35:29.953Z,13.50
2023-04-15T19:39:37.714Z,14.60
2023-04-15T19:43:45.575Z,13.60
2023-04-15T19:47:56.254Z,14.80
2023-04-15T19:52:06.179Z,16.10
2023-04-15T19:56:14.461Z,14.90
2023-04-15T20:00:23.733Z,15.50
2023-04-15T20:04:32.088Z,17.50
2023-04-15T20:08:40.986Z,16.80
2023-04-15T20:12:52.618Z,19.40
2023-04-15T20:17:02.518Z,20.50
2023-04-15T20:21:11.456Z,21.30
2023-04-15T20:25:20.044Z,30.80
2023-04-15T20:29:27.915Z,29.80
2023-04-15T20:33:36.504Z,27.20
2023-04-15T20:37:46.562Z,22.50
2023-04-15T20:41:55.513Z,20.70
2023-04-15T20:46:10.158Z,21.50
2023-04-15T20:50:28.986Z,19.60
2023-04-15T20:54:37.109Z,19.90
2023-04-15T20:58:45.099Z,20.90
2023-04-15T21:02:53.037Z,20.80
2023-04-15T21:07:01.705Z,23.10
2023-04-15T21:11:09.534Z,23.20
2023-04-15T21:15:23.396Z,21.80
2023-04-15T21:19:34.716Z,22.90
2023-04-15T21:23:43.266Z,19.10
2023-04-15T21:27:51.175Z,21.20
2023-04-15T21:31:59.264Z,22.90
2023-04-15T21:36:07.876Z,21.40
2023-04-15T21:40:18.530Z,22.10
2023-04-15T21:44:26.316Z,22.00
2023-04-15T21:48:34.965Z,21.60
2023-04-15T21:52:43.309Z,30.30
2023-04-15T21:56:52.217Z,35.40
2023-04-15T22:01:00.647Z,29.00
2023-04-15T22:05:09.576Z,25.40
2023-04-15T22:09:17.964Z,25.90
2023-04-15T22:13:26.515Z,29.50
2023-04-15T22:17:34.486Z,26.30
2023-04-15T22:21:43.431Z,26.30
2023-04-15T22:25:51.496Z,32.20
2023-04-15T22:30:00.121Z,27.10
2023-04-15T22:34:08.641Z,29.80
2023-04-15T22:38:16.592Z,29.20
2023-04-15T22:42:25.225Z,29.30
2023-04-15T22:46:33.057Z,25.70
2023-04-15T22:50:41.822Z,25.10
2023-04-15T22:54:49.201Z,28.80
2023-04-15T22:58:57.384Z,33.50
2023-04-15T23:03:05.800Z,27.90
2023-04-15T23:07:15.815Z,26.40
2023-04-15T23:11:23.491Z,28.60
2023-04-15T23:15:31.340Z,26.30
2023-04-15T23:19:39.542Z,26.40
2023-04-15T23:23:47.333Z,26.20
2023-04-15T23:27:55.162Z,26.80
2023-04-15T23:32:03.797Z,25.90
2023-04-15T23:36:12.189Z,22.70
2023-04-15T23:40:20.214Z,25.80
2023-04-15T23:44:28.383Z,22.80
2023-04-15T23:48:36.477Z,22.10
2023-04-15T23:52:45.172Z,22.50
2023-04-15T23:56:53.687Z,21.30
